<?xml version='1.0' encoding='UTF-8'?><gpx version="1.1" creator="JPX - https://github.com/jenetics/jpx" xmlns="http://www.topografix.com/GPX/1/1"><trk><trkseg><trkpt lat="41.09822424644383" lon="14.289196733288074"><ele>254.25</ele><time>2026-05-05T17:53:06Z</time></trkpt><trkpt lat="41.09829108419146" lon="14.289284611437282"><ele>255.5</ele><time>2026-05-05T17:53:07Z</time></trkpt><trkpt lat="41.09838484327558" lon="14.289362004584264"><ele>256.75</ele><time>2026-05-05T17:53:08Z</time></trkpt><trkpt lat="41.098517982147214" lon="14.289439225887616"><ele>258.0</ele><time>2026-05-05T17:53:09Z</time></trkpt><trkpt lat="41.09867090823457" lon="14.289500362276014"><ele>258.0</ele><time>2026-05-05T17:53:10Z</time></trkpt><trkpt lat="41.0988074488531" lon="14.289542543869942"><ele>258.0</ele><time>2026-05-05T17:53:11Z</time></trkpt><trkpt lat="41.09888644518242" lon="14.289596843258721"><ele>258.0</ele><time>2026-05-05T17:53:12Z</time></trkpt><trkpt lat="41.09897075334877" lon="14.289684360501772"><ele>258.0</ele><time>2026-05-05T17:53:13Z</time></trkpt><trkpt lat="41.09904142919287" lon="14.289736076268888"><ele>258.0</ele><time>2026-05-05T17:53:14Z</time></trkpt><trkpt lat="41.09914561896873" lon="14.289779664772448"><ele>259.6</ele><time>2026-05-05T17:53:16Z</time></trkpt><trkpt lat="41.099107608444676" lon="14.289913972339992"><ele>261.20000000000005</ele><time>2026-05-05T17:53:18Z</time></trkpt><trkpt lat="41.09909931770209" lon="14.290060894556342"><ele>262.8</ele><time>2026-05-05T17:53:19Z</time></trkpt><trkpt lat="41.099121987604725" lon="14.290225831699207"><ele>264.40000000000003</ele><time>2026-05-05T17:53:20Z</time></trkpt><trkpt lat="41.09912776288324" lon="14.290340337090585"><ele>266.0</ele><time>2026-05-05T17:53:21Z</time></trkpt><trkpt lat="41.0990880466365" lon="14.29044940199528"><ele>262.8</ele><time>2026-05-05T17:53:22Z</time></trkpt><trkpt lat="41.09907862486892" lon="14.290595979891116"><ele>259.6</ele><time>2026-05-05T17:53:23Z</time></trkpt><trkpt lat="41.099061864826524" lon="14.290749382734273"><ele>256.4</ele><time>2026-05-05T17:53:24Z</time></trkpt><trkpt lat="41.099041033539685" lon="14.290850116548356"><ele>253.2</ele><time>2026-05-05T17:53:25Z</time></trkpt><trkpt lat="41.098979306816084" lon="14.290928338132728"><ele>250.0</ele><time>2026-05-05T17:53:26Z</time></trkpt><trkpt lat="41.09894221882309" lon="14.291023240371155"><ele>250.0</ele><time>2026-05-05T17:53:27Z</time></trkpt><trkpt lat="41.09892897046591" lon="14.291152796055878"><ele>250.0</ele><time>2026-05-05T17:53:28Z</time></trkpt><trkpt lat="41.098900708531275" lon="14.291343815580337"><ele>250.0</ele><time>2026-05-05T17:53:29Z</time></trkpt><trkpt lat="41.0988499120072" lon="14.291530425448197"><ele>250.0</ele><time>2026-05-05T17:53:30Z</time></trkpt><trkpt lat="41.09880908914189" lon="14.291703657717704"><ele>250.2</ele><time>2026-05-05T17:53:31Z</time></trkpt><trkpt lat="41.0987771519282" lon="14.29184578033044"><ele>250.4</ele><time>2026-05-05T17:53:32Z</time></trkpt><trkpt lat="41.09876217951095" lon="14.291951766077837"><ele>250.60000000000002</ele><time>2026-05-05T17:53:33Z</time></trkpt><trkpt lat="41.098828072416765" lon="14.2920620555053"><ele>250.8</ele><time>2026-05-05T17:53:35Z</time></trkpt><trkpt lat="41.09889809367986" lon="14.292197787086842"><ele>251.0</ele><time>2026-05-05T17:53:37Z</time></trkpt><trkpt lat="41.09887896744713" lon="14.292387940396068"><ele>251.50000000000003</ele><time>2026-05-05T17:53:38.999Z</time></trkpt><trkpt lat="41.098882925367406" lon="14.292480461887363"><ele>252.0</ele><time>2026-05-05T17:53:39.999Z</time></trkpt><trkpt lat="41.09892440829446" lon="14.29257024372766"><ele>252.5</ele><time>2026-05-05T17:53:40.999Z</time></trkpt><trkpt lat="41.098991267899414" lon="14.292652505834512"><ele>253.0</ele><time>2026-05-05T17:53:41.999Z</time></trkpt><trkpt lat="41.099051819959215" lon="14.292676191929685"><ele>253.50000000000003</ele><time>2026-05-05T17:53:42.999Z</time></trkpt><trkpt lat="41.09911480665427" lon="14.292625537219596"><ele>254.0</ele><time>2026-05-05T17:53:43.999Z</time></trkpt><trkpt lat="41.09919702586943" lon="14.292593865827754"><ele>257.0</ele><time>2026-05-05T17:53:44.999Z</time></trkpt><trkpt lat="41.09931893133908" lon="14.292628224221271"><ele>260.0</ele><time>2026-05-05T17:53:46.999Z</time></trkpt><trkpt lat="41.09938136564408" lon="14.292642549978625"><ele>263.0</ele><time>2026-05-05T17:53:47.999Z</time></trkpt><trkpt lat="41.09943912964652" lon="14.292605576025517"><ele>266.0</ele><time>2026-05-05T17:53:49.999Z</time></trkpt><trkpt lat="41.09951246530266" lon="14.292550676932754"><ele>269.0</ele><time>2026-05-05T17:53:51.999Z</time></trkpt><trkpt lat="41.099606300673514" lon="14.292543265542111"><ele>272.0</ele><time>2026-05-05T17:53:53.999Z</time></trkpt><trkpt lat="41.09969075243865" lon="14.292529225914475"><ele>272.0</ele><time>2026-05-05T17:53:55.999Z</time></trkpt><trkpt lat="41.09978038938792" lon="14.292481797589598"><ele>272.0</ele><time>2026-05-05T17:53:57.999Z</time></trkpt><trkpt lat="41.09990594073141" lon="14.292439990462478"><ele>272.0</ele><time>2026-05-05T17:53:59.999Z</time></trkpt><trkpt lat="41.099973988639455" lon="14.292413344710988"><ele>272.0</ele><time>2026-05-05T17:54:00.999Z</time></trkpt><trkpt lat="41.100047211722334" lon="14.292414420311054"><ele>272.0</ele><time>2026-05-05T17:54:01.999Z</time></trkpt><trkpt lat="41.1001226662794" lon="14.292509549866768"><ele>274.4</ele><time>2026-05-05T17:54:03.999Z</time></trkpt><trkpt lat="41.100168025659116" lon="14.292643319412482"><ele>276.79999999999995</ele><time>2026-05-05T17:54:05.999Z</time></trkpt><trkpt lat="41.10022978041644" lon="14.292770723473955"><ele>279.2</ele><time>2026-05-05T17:54:07.999Z</time></trkpt><trkpt lat="41.100266656176885" lon="14.292848357216894"><ele>281.59999999999997</ele><time>2026-05-05T17:54:08.999Z</time></trkpt><trkpt lat="41.10037321561344" lon="14.292930136134533"><ele>284.0</ele><time>2026-05-05T17:54:10.999Z</time></trkpt><trkpt lat="41.100448101519746" lon="14.29295876330041"><ele>284.0</ele><time>2026-05-05T17:54:11.999Z</time></trkpt><trkpt lat="41.10050903706659" lon="14.29300005837493"><ele>284.0</ele><time>2026-05-05T17:54:12.999Z</time></trkpt><trkpt lat="41.100557110909854" lon="14.293060407866374"><ele>284.0</ele><time>2026-05-05T17:54:13.999Z</time></trkpt><trkpt lat="41.10067197868274" lon="14.293081990168435"><ele>284.0</ele><time>2026-05-05T17:54:15.999Z</time></trkpt><trkpt lat="41.10074534608788" lon="14.293007278730203"><ele>284.0</ele><time>2026-05-05T17:54:16.999Z</time></trkpt><trkpt lat="41.10081917409475" lon="14.292917847406098"><ele>284.0</ele><time>2026-05-05T17:54:17.999Z</time></trkpt><trkpt lat="41.100879236016716" lon="14.292839162086578"><ele>285.0</ele><time>2026-05-05T17:54:18.999Z</time></trkpt><trkpt lat="41.10094306689218" lon="14.292779860739694"><ele>286.0</ele><time>2026-05-05T17:54:19.999Z</time></trkpt><trkpt lat="41.101045138171195" lon="14.29275329379224"><ele>287.0</ele><time>2026-05-05T17:54:21.999Z</time></trkpt><trkpt lat="41.10111573547317" lon="14.29276948205182"><ele>288.0</ele><time>2026-05-05T17:54:22.999Z</time></trkpt><trkpt lat="41.1011767800735" lon="14.292740058565432"><ele>289.0</ele><time>2026-05-05T17:54:23.999Z</time></trkpt><trkpt lat="41.10123813641848" lon="14.292714332618866"><ele>290.0</ele><time>2026-05-05T17:54:24.999Z</time></trkpt><trkpt lat="41.10130662497175" lon="14.292707260246317"><ele>290.0</ele><time>2026-05-05T17:54:25.999Z</time></trkpt><trkpt lat="41.101409407507795" lon="14.292663952068226"><ele>290.0</ele><time>2026-05-05T17:54:27.999Z</time></trkpt><trkpt lat="41.10150917924234" lon="14.292628131208717"><ele>290.0</ele><time>2026-05-05T17:54:29.999Z</time></trkpt><trkpt lat="41.10160074996607" lon="14.292576990759194"><ele>290.0</ele><time>2026-05-05T17:54:31.999Z</time></trkpt><trkpt lat="41.10172117866695" lon="14.292606527723219"><ele>290.0</ele><time>2026-05-05T17:54:33.999Z</time></trkpt><trkpt lat="41.10179945958498" lon="14.292611587451669"><ele>291.6</ele><time>2026-05-05T17:54:34.999Z</time></trkpt><trkpt lat="41.101897262137825" lon="14.292563290786383"><ele>293.2</ele><time>2026-05-05T17:54:35.999Z</time></trkpt><trkpt lat="41.1020064137252" lon="14.292496607406097"><ele>294.8</ele><time>2026-05-05T17:54:36.999Z</time></trkpt><trkpt lat="41.102091309173765" lon="14.292451855736646"><ele>296.4</ele><time>2026-05-05T17:54:37.999Z</time></trkpt><trkpt lat="41.10216501180003" lon="14.292475227665"><ele>298.0</ele><time>2026-05-05T17:54:38.999Z</time></trkpt><trkpt lat="41.102266161080266" lon="14.292514294798742"><ele>298.0</ele><time>2026-05-05T17:54:39.999Z</time></trkpt><trkpt lat="41.10238043583659" lon="14.292495387530277"><ele>298.0</ele><time>2026-05-05T17:54:40.999Z</time></trkpt><trkpt lat="41.102496643488834" lon="14.292468853351988"><ele>298.0</ele><time>2026-05-05T17:54:41.999Z</time></trkpt><trkpt lat="41.102608217310596" lon="14.292432033537207"><ele>298.0</ele><time>2026-05-05T17:54:42.999Z</time></trkpt><trkpt lat="41.10269851772575" lon="14.29237867959865"><ele>298.0</ele><time>2026-05-05T17:54:44Z</time></trkpt><trkpt lat="41.10279290592646" lon="14.292310891896866"><ele>300.2</ele><time>2026-05-05T17:54:45Z</time></trkpt><trkpt lat="41.10286279484876" lon="14.292213330947718"><ele>302.4</ele><time>2026-05-05T17:54:46Z</time></trkpt><trkpt lat="41.10290682462346" lon="14.29209156557138"><ele>304.59999999999997</ele><time>2026-05-05T17:54:47Z</time></trkpt><trkpt lat="41.10295712054699" lon="14.291969063339335"><ele>306.8</ele><time>2026-05-05T17:54:48Z</time></trkpt><trkpt lat="41.10302089554156" lon="14.291886111655886"><ele>309.0</ele><time>2026-05-05T17:54:49Z</time></trkpt><trkpt lat="41.103065548626006" lon="14.29181636334789"><ele>309.0</ele><time>2026-05-05T17:54:50Z</time></trkpt><trkpt lat="41.103100868250266" lon="14.291741349844761"><ele>309.0</ele><time>2026-05-05T17:54:51Z</time></trkpt><trkpt lat="41.10317399485711" lon="14.291774839898636"><ele>309.0</ele><time>2026-05-05T17:54:53Z</time></trkpt><trkpt lat="41.10323894654085" lon="14.291856940805117"><ele>309.0</ele><time>2026-05-05T17:54:54Z</time></trkpt><trkpt lat="41.10334595228448" lon="14.291924966407459"><ele>309.0</ele><time>2026-05-05T17:54:55Z</time></trkpt><trkpt lat="41.10344524364822" lon="14.291984790804964"><ele>309.4</ele><time>2026-05-05T17:54:56Z</time></trkpt><trkpt lat="41.10350373367197" lon="14.292070822751853"><ele>309.79999999999995</ele><time>2026-05-05T17:54:57Z</time></trkpt><trkpt lat="41.103574626118125" lon="14.292163471623756"><ele>310.20000000000005</ele><time>2026-05-05T17:54:58Z</time></trkpt><trkpt lat="41.10362769880264" lon="14.292247994821237"><ele>310.6</ele><time>2026-05-05T17:54:59Z</time></trkpt><trkpt lat="41.10362680667387" lon="14.292112727993185"><ele>311.0</ele><time>2026-05-05T17:55:03Z</time></trkpt><trkpt lat="41.10365113986544" lon="14.291959435356409"><ele>311.0</ele><time>2026-05-05T17:55:04Z</time></trkpt><trkpt lat="41.1036057588031" lon="14.291791902188557"><ele>311.0</ele><time>2026-05-05T17:55:06Z</time></trkpt><trkpt lat="41.10360957679939" lon="14.291650489023207"><ele>311.0</ele><time>2026-05-05T17:55:08Z</time></trkpt><trkpt lat="41.103593841311785" lon="14.291565264428533"><ele>311.0</ele><time>2026-05-05T17:55:09Z</time></trkpt><trkpt lat="41.10358966625269" lon="14.291412393167931"><ele>311.0</ele><time>2026-05-05T17:55:11Z</time></trkpt><trkpt lat="41.10350255715693" lon="14.29135612367343"><ele>323.0</ele><time>2026-05-05T17:55:12Z</time></trkpt><trkpt lat="41.10348297507497" lon="14.291238542673401"><ele>323.0</ele><time>2026-05-05T17:55:14Z</time></trkpt><trkpt lat="41.10350689388934" lon="14.291338361813025"><ele>323.0</ele><time>2026-05-05T17:55:16Z</time></trkpt></trkseg></trk></gpx>